Time;durP1;ratioP1;P1;durP2;ratioP2;P2;SDS_P1;SDS_P2;PMS_P1;PMS_P2;Temp;Humidity;BMP_temperature;BMP_pressure;BME280_temperature;BME280_humidity;BME280_pressure;Samples;Min_cycle;Max_cycle;Signal;HPM_P1;HPM_P2
2023/10/22 00:00:45;;;;;;;8.30;4.50;;;;;;;;;;5096589;28;20024;-79
2023/10/22 00:03:10;;;;;;;12.98;5.50;;;;;;;;;;5096019;28;20140;-79
2023/10/22 00:05:35;;;;;;;10.13;5.75;;;;;;;;;;5079347;28;20040;-79
2023/10/22 00:08:00;;;;;;;9.57;5.55;;;;;;;;;;5099009;28;20138;-79
2023/10/22 00:10:26;;;;;;;8.90;5.70;;;;;;;;;;5095475;28;20027;-79
2023/10/22 00:12:51;;;;;;;8.05;5.32;;;;;;;;;;5079616;28;20027;-80
2023/10/22 00:15:16;;;;;;;8.52;5.00;;;;;;;;;;5084631;28;20032;-79
2023/10/22 00:17:42;;;;;;;10.20;5.10;;;;;;;;;;5079557;28;20043;-79
2023/10/22 00:20:07;;;;;;;8.05;5.22;;;;;;;;;;5096982;28;20032;-80
2023/10/22 00:22:33;;;;;;;6.55;4.45;;;;;;;;;;5102241;28;20019;-79
2023/10/22 00:24:58;;;;;;;8.50;4.60;;;;;;;;;;5099098;28;20406;-79
2023/10/22 00:27:23;;;;;;;7.22;4.45;;;;;;;;;;5095665;28;20028;-79
2023/10/22 00:29:48;;;;;;;7.30;4.75;;;;;;;;;;5079830;28;20076;-80
2023/10/22 00:32:14;;;;;;;6.93;4.70;;;;;;;;;;5078075;28;20031;-79
2023/10/22 00:34:39;;;;;;;9.40;4.88;;;;;;;;;;5098129;28;20051;-79
2023/10/22 00:37:04;;;;;;;8.07;4.75;;;;;;;;;;5103039;28;20024;-79
2023/10/22 00:39:30;;;;;;;7.70;4.68;;;;;;;;;;5087891;28;20053;-78
2023/10/22 00:41:55;;;;;;;8.75;4.60;;;;;;;;;;5097413;28;20072;-79
2023/10/22 00:44:20;;;;;;;7.07;4.80;;;;;;;;;;5099071;28;20476;-79
2023/10/22 00:46:46;;;;;;;6.45;4.18;;;;;;;;;;5082113;28;20032;-78
2023/10/22 00:49:13;;;;;;;7.53;5.30;;;;;;;;;;5100353;28;20024;-79
2023/10/22 00:51:39;;;;;;;8.10;4.55;;;;;;;;;;5063939;28;20035;-79
2023/10/22 00:54:04;;;;;;;7.13;4.75;;;;;;;;;;5085143;28;20438;-78
2023/10/22 00:56:29;;;;;;;6.63;4.78;;;;;;;;;;5079273;28;20408;-80
2023/10/22 00:58:56;;;;;;;6.82;4.60;;;;;;;;;;5076176;28;20099;-79
2023/10/22 01:01:22;;;;;;;7.47;4.43;;;;;;;;;;5080880;28;20040;-79
2023/10/22 01:03:48;;;;;;;8.45;4.75;;;;;;;;;;5067908;28;20054;-79
2023/10/22 01:06:13;;;;;;;6.28;4.28;;;;;;;;;;5103744;28;20032;-79
2023/10/22 01:08:39;;;;;;;6.72;4.40;;;;;;;;;;5085516;28;20028;-79
2023/10/22 01:11:11;;;;;;;7.88;4.18;;;;;;;;;;5074274;28;20036;-79
2023/10/22 01:13:36;;;;;;;6.78;4.22;;;;;;;;;;5100643;28;20028;-80
2023/10/22 01:16:02;;;;;;;6.63;4.10;;;;;;;;;;5100821;28;20028;-79
2023/10/22 01:18:27;;;;;;;4.78;3.30;;;;;;;;;;5085947;28;20817;-79
2023/10/22 01:20:53;;;;;;;6.22;4.30;;;;;;;;;;5102007;28;20019;-78
2023/10/22 01:23:18;;;;;;;7.45;4.25;;;;;;;;;;5103837;28;20455;-79
2023/10/22 01:25:44;;;;;;;7.32;3.78;;;;;;;;;;5080272;28;20039;-79
2023/10/22 01:28:09;;;;;;;6.72;4.60;;;;;;;;;;5099628;28;20047;-79
2023/10/22 01:30:34;;;;;;;5.35;3.65;;;;;;;;;;5082805;28;20507;-78
2023/10/22 01:32:59;;;;;;;6.97;4.75;;;;;;;;;;5101135;28;20028;-80
2023/10/22 01:35:25;;;;;;;7.90;5.25;;;;;;;;;;5087658;28;20081;-79
2023/10/22 01:37:50;;;;;;;6.72;4.00;;;;;;;;;;5080100;28;20479;-79
2023/10/22 01:40:15;;;;;;;7.60;4.47;;;;;;;;;;5076996;28;20077;-79
2023/10/22 01:42:40;;;;;;;5.80;3.78;;;;;;;;;;5082862;28;20095;-78
2023/10/22 01:45:06;;;;;;;5.88;3.67;;;;;;;;;;5100607;28;20399;-80
2023/10/22 01:47:31;;;;;;;5.57;3.60;;;;;;;;;;5104069;28;20072;-79
2023/10/22 01:49:57;;;;;;;5.60;4.03;;;;;;;;;;5084082;28;20396;-78
2023/10/22 01:52:23;;;;;;;5.18;3.47;;;;;;;;;;5096938;28;20028;-78
2023/10/22 01:54:49;;;;;;;5.38;3.42;;;;;;;;;;5097518;28;20535;-79
2023/10/22 01:57:15;;;;;;;6.22;3.10;;;;;;;;;;5089584;28;20039;-78
2023/10/22 01:59:41;;;;;;;6.00;3.30;;;;;;;;;;5078110;28;20027;-79
2023/10/22 02:02:07;;;;;;;5.95;2.80;;;;;;;;;;5080993;28;20459;-79
2023/10/22 02:04:32;;;;;;;4.63;2.70;;;;;;;;;;5077284;28;20059;-79
2023/10/22 02:06:57;;;;;;;4.40;2.67;;;;;;;;;;5077324;28;20023;-79
2023/10/22 02:09:25;;;;;;;3.72;2.33;;;;;;;;;;5098615;28;20667;-79
2023/10/22 02:11:52;;;;;;;3.72;2.40;;;;;;;;;;5098628;28;20059;-79
2023/10/22 02:14:17;;;;;;;5.57;2.67;;;;;;;;;;5102147;28;20028;-79
2023/10/22 02:16:42;;;;;;;3.10;2.03;;;;;;;;;;5086888;28;20081;-79
2023/10/22 02:19:08;;;;;;;3.80;2.10;;;;;;;;;;5081554;28;20519;-79
2023/10/22 02:21:33;;;;;;;3.42;2.10;;;;;;;;;;5097998;28;20035;-79
2023/10/22 02:23:58;;;;;;;4.43;2.38;;;;;;;;;;5097771;28;20027;-79
2023/10/22 02:26:24;;;;;;;6.13;3.30;;;;;;;;;;5101074;28;20035;-79
2023/10/22 02:28:49;;;;;;;3.67;2.25;;;;;;;;;;5098853;28;20162;-79
2023/10/22 02:31:15;;;;;;;3.85;2.15;;;;;;;;;;5081574;28;20487;-79
2023/10/22 02:33:40;;;;;;;6.47;2.45;;;;;;;;;;5080598;28;20032;-79
2023/10/22 02:36:06;;;;;;;6.13;2.00;;;;;;;;;;5097680;28;20052;-79
2023/10/22 02:38:33;;;;;;;4.30;1.80;;;;;;;;;;5082083;28;20458;-79
2023/10/22 02:40:58;;;;;;;4.88;2.38;;;;;;;;;;5075049;28;20016;-79
2023/10/22 02:43:23;;;;;;;4.40;2.50;;;;;;;;;;5103080;28;20387;-79
2023/10/22 02:45:51;;;;;;;5.18;2.13;;;;;;;;;;5101022;28;20039;-80
2023/10/22 02:48:16;;;;;;;5.20;2.00;;;;;;;;;;5066825;28;20468;-80
2023/10/22 02:50:42;;;;;;;4.68;2.17;;;;;;;;;;5078199;28;20051;-78
2023/10/22 02:53:08;;;;;;;4.63;2.10;;;;;;;;;;5086832;28;20024;-77
2023/10/22 02:55:33;;;;;;;6.22;2.13;;;;;;;;;;5099823;28;20518;-80
2023/10/22 02:57:58;;;;;;;3.30;1.80;;;;;;;;;;5100115;28;20050;-79
2023/10/22 03:00:23;;;;;;;4.82;2.40;;;;;;;;;;5096931;28;20032;-80
2023/10/22 03:02:48;;;;;;;5.05;2.67;;;;;;;;;;5084150;28;20118;-80
2023/10/22 03:05:14;;;;;;;4.22;2.60;;;;;;;;;;5073840;28;20035;-79
2023/10/22 03:07:40;;;;;;;5.97;2.20;;;;;;;;;;5081458;28;20035;-79
2023/10/22 03:10:06;;;;;;;5.85;2.50;;;;;;;;;;5087909;28;20024;-80
2023/10/22 03:12:31;;;;;;;3.90;2.30;;;;;;;;;;5101301;28;20514;-79
2023/10/22 03:14:56;;;;;;;4.05;2.03;;;;;;;;;;5076197;28;20547;-79
2023/10/22 03:17:21;;;;;;;4.43;1.98;;;;;;;;;;5095233;28;20052;-79
2023/10/22 03:19:46;;;;;;;3.72;2.17;;;;;;;;;;5098081;28;20066;-79
2023/10/22 03:22:13;;;;;;;4.80;2.53;;;;;;;;;;5096082;28;20059;-78
2023/10/22 03:24:38;;;;;;;4.28;1.80;;;;;;;;;;5101122;28;20499;-78
2023/10/22 03:27:04;;;;;;;4.80;2.50;;;;;;;;;;5100761;28;20035;-79
2023/10/22 03:29:29;;;;;;;4.65;2.25;;;;;;;;;;5075437;28;20491;-79
2023/10/22 03:31:54;;;;;;;5.03;1.98;;;;;;;;;;5096028;28;20042;-79
2023/10/22 03:34:20;;;;;;;5.25;2.53;;;;;;;;;;5079354;28;20071;-79
2023/10/22 03:36:45;;;;;;;4.50;2.17;;;;;;;;;;5082858;28;20110;-79
2023/10/22 03:39:10;;;;;;;6.07;2.40;;;;;;;;;;5099734;28;20012;-79
2023/10/22 03:41:36;;;;;;;4.90;2.90;;;;;;;;;;5080356;28;20025;-79
2023/10/22 03:44:01;;;;;;;4.88;2.80;;;;;;;;;;5076007;28;20027;-79
2023/10/22 03:46:27;;;;;;;7.32;3.65;;;;;;;;;;5077701;28;20040;-79
2023/10/22 03:48:52;;;;;;;7.00;2.47;;;;;;;;;;5098319;28;20055;-79
2023/10/22 03:51:17;;;;;;;6.93;3.20;;;;;;;;;;5097214;28;20047;-79
2023/10/22 03:53:52;;;;;;;6.45;3.25;;;;;;;;;;5082294;28;20110;-78
2023/10/22 03:56:18;;;;;;;4.85;3.25;;;;;;;;;;5089855;28;20418;-79
2023/10/22 03:58:43;;;;;;;4.65;2.60;;;;;;;;;;5095949;28;20028;-79
2023/10/22 04:01:08;;;;;;;7.78;3.63;;;;;;;;;;5093729;28;20030;-79
2023/10/22 04:03:33;;;;;;;4.40;2.83;;;;;;;;;;5099503;28;20100;-79
2023/10/22 04:05:58;;;;;;;5.43;2.65;;;;;;;;;;5081936;28;20028;-79
2023/10/22 04:08:25;;;;;;;4.00;2.55;;;;;;;;;;5103865;28;20023;-80
2023/10/22 04:10:51;;;;;;;5.40;3.03;;;;;;;;;;5072943;28;20028;-79
2023/10/22 04:13:16;;;;;;;6.72;3.30;;;;;;;;;;5106805;28;20031;-80
2023/10/22 04:15:41;;;;;;;5.22;2.40;;;;;;;;;;5103608;28;20032;-79
2023/10/22 04:18:06;;;;;;;4.13;2.00;;;;;;;;;;5104185;28;20023;-80
2023/10/22 04:20:33;;;;;;;4.63;2.50;;;;;;;;;;5085172;28;20062;-80
2023/10/22 04:22:58;;;;;;;5.47;2.83;;;;;;;;;;5104903;28;20036;-80
2023/10/22 04:25:23;;;;;;;4.75;2.50;;;;;;;;;;5092823;28;20092;-80
2023/10/22 04:27:49;;;;;;;3.90;2.40;;;;;;;;;;5081865;28;20066;-79
2023/10/22 04:30:14;;;;;;;3.72;2.10;;;;;;;;;;5101833;28;20066;-80
2023/10/22 04:32:40;;;;;;;3.90;2.17;;;;;;;;;;5098140;28;20113;-79
2023/10/22 04:35:05;;;;;;;3.22;1.80;;;;;;;;;;5098008;28;21982;-79
2023/10/22 04:37:30;;;;;;;3.70;1.85;;;;;;;;;;5104091;28;20032;-80
2023/10/22 04:39:56;;;;;;;4.70;2.55;;;;;;;;;;5096126;28;20475;-80
2023/10/22 04:42:21;;;;;;;4.28;2.30;;;;;;;;;;5098792;28;20020;-78
2023/10/22 04:44:47;;;;;;;3.90;1.67;;;;;;;;;;5084136;28;20036;-80
2023/10/22 04:47:12;;;;;;;3.67;2.10;;;;;;;;;;5091555;28;20047;-79
2023/10/22 04:49:37;;;;;;;4.20;2.25;;;;;;;;;;5106777;28;20164;-79
2023/10/22 04:52:03;;;;;;;4.47;2.72;;;;;;;;;;5100397;28;20020;-80
2023/10/22 04:54:28;;;;;;;4.75;2.40;;;;;;;;;;5097270;28;20472;-80
2023/10/22 04:56:53;;;;;;;4.60;2.72;;;;;;;;;;5100465;28;20039;-79
2023/10/22 04:59:19;;;;;;;4.30;2.00;;;;;;;;;;5096666;28;20039;-79
2023/10/22 05:01:44;;;;;;;6.28;2.17;;;;;;;;;;5101808;28;20024;-80
2023/10/22 05:04:09;;;;;;;4.25;2.13;;;;;;;;;;5103348;28;20077;-79
2023/10/22 05:06:35;;;;;;;4.00;2.05;;;;;;;;;;5099940;28;20089;-80
2023/10/22 05:09:01;;;;;;;5.57;2.90;;;;;;;;;;5098021;28;20484;-79
2023/10/22 05:11:26;;;;;;;5.55;2.60;;;;;;;;;;5098211;28;20050;-79
2023/10/22 05:13:51;;;;;;;3.95;2.00;;;;;;;;;;5102219;28;20036;-79
2023/10/22 05:16:17;;;;;;;3.92;2.45;;;;;;;;;;5102642;28;20047;-80
2023/10/22 05:18:42;;;;;;;3.72;2.05;;;;;;;;;;5102643;28;20028;-80
2023/10/22 05:21:07;;;;;;;4.90;2.40;;;;;;;;;;5093514;28;20058;-79
2023/10/22 05:23:33;;;;;;;5.97;3.10;;;;;;;;;;5096669;28;20512;-80
2023/10/22 05:26:02;;;;;;;4.10;2.45;;;;;;;;;;5099911;28;20547;-80
2023/10/22 05:28:28;;;;;;;7.25;3.22;;;;;;;;;;5084177;28;20069;-80
2023/10/22 05:30:53;;;;;;;4.45;2.78;;;;;;;;;;5103716;28;20036;-79
2023/10/22 05:33:18;;;;;;;5.05;2.70;;;;;;;;;;5099133;28;20404;-79
2023/10/22 05:35:43;;;;;;;3.53;2.50;;;;;;;;;;5098171;28;20507;-80
2023/10/22 05:38:08;;;;;;;4.05;2.30;;;;;;;;;;5080632;28;20104;-79
2023/10/22 05:40:37;;;;;;;7.63;2.47;;;;;;;;;;5101382;28;20024;-78
2023/10/22 05:43:02;;;;;;;3.97;2.10;;;;;;;;;;5101681;28;20035;-79
2023/10/22 05:45:28;;;;;;;9.10;4.47;;;;;;;;;;5086751;28;20119;-79
2023/10/22 05:47:53;;;;;;;4.47;3.00;;;;;;;;;;5097546;28;20036;-80
2023/10/22 05:50:18;;;;;;;5.22;2.20;;;;;;;;;;5096059;28;20033;-80
2023/10/22 05:52:43;;;;;;;5.53;2.30;;;;;;;;;;5082159;28;20032;-79
2023/10/22 05:55:08;;;;;;;4.80;2.80;;;;;;;;;;5096501;28;20047;-79
2023/10/22 05:57:34;;;;;;;3.90;2.33;;;;;;;;;;5085952;28;20223;-80
2023/10/22 05:59:59;;;;;;;2.90;1.70;;;;;;;;;;5102103;28;20496;-80
2023/10/22 06:02:24;;;;;;;3.05;1.88;;;;;;;;;;5094274;28;20476;-80
2023/10/22 06:04:49;;;;;;;4.82;2.28;;;;;;;;;;5098107;28;20053;-80
2023/10/22 06:07:15;;;;;;;3.42;1.70;;;;;;;;;;5096922;28;20078;-79
2023/10/22 06:09:40;;;;;;;2.92;1.83;;;;;;;;;;5102749;28;20443;-77
2023/10/22 06:12:05;;;;;;;7.32;1.90;;;;;;;;;;5101284;28;20610;-80
2023/10/22 06:14:30;;;;;;;2.40;1.25;;;;;;;;;;5102117;28;20059;-79
2023/10/22 06:16:55;;;;;;;3.00;1.90;;;;;;;;;;5096481;28;20035;-80
2023/10/22 06:19:21;;;;;;;4.15;1.90;;;;;;;;;;5097031;28;20024;-79
2023/10/22 06:21:46;;;;;;;2.80;1.58;;;;;;;;;;5100214;28;20083;-79
2023/10/22 06:24:12;;;;;;;3.55;1.45;;;;;;;;;;5097598;28;20028;-80
2023/10/22 06:26:37;;;;;;;3.17;1.50;;;;;;;;;;5104604;28;20070;-80
2023/10/22 06:29:02;;;;;;;4.05;1.73;;;;;;;;;;5080371;28;20053;-81
2023/10/22 06:31:27;;;;;;;3.22;1.60;;;;;;;;;;5075875;28;20643;-80
2023/10/22 06:33:53;;;;;;;3.22;1.60;;;;;;;;;;5078333;28;20063;-79
2023/10/22 06:36:23;;;;;;;1.98;1.08;;;;;;;;;;5098317;28;20406;-79
2023/10/22 06:38:48;;;;;;;4.15;1.40;;;;;;;;;;5097790;28;20392;-80
2023/10/22 06:41:17;;;;;;;3.53;1.52;;;;;;;;;;5101894;28;20032;-80
2023/10/22 06:43:43;;;;;;;3.00;1.52;;;;;;;;;;5077706;28;20071;-80
2023/10/22 06:46:08;;;;;;;3.67;1.60;;;;;;;;;;5076203;28;20055;-79
2023/10/22 06:48:33;;;;;;;3.05;1.20;;;;;;;;;;5098781;28;20484;-79
2023/10/22 06:50:59;;;;;;;2.70;1.40;;;;;;;;;;5094396;28;20444;-80
2023/10/22 06:53:24;;;;;;;3.70;1.80;;;;;;;;;;5100978;28;20545;-79
2023/10/22 06:55:49;;;;;;;3.47;1.67;;;;;;;;;;5082780;28;20031;-79
2023/10/22 06:58:16;;;;;;;2.83;1.65;;;;;;;;;;5095131;28;20031;-79
2023/10/22 07:00:41;;;;;;;3.45;1.60;;;;;;;;;;5096973;28;20395;-77
2023/10/22 07:03:06;;;;;;;3.83;1.77;;;;;;;;;;5097395;28;20028;-79
2023/10/22 07:05:32;;;;;;;3.00;1.30;;;;;;;;;;5099401;28;20028;-78
2023/10/22 07:07:57;;;;;;;3.55;1.63;;;;;;;;;;5101234;28;20023;-78
2023/10/22 07:10:23;;;;;;;3.00;1.20;;;;;;;;;;5100058;28;20498;-78
2023/10/22 07:12:48;;;;;;;3.58;1.33;;;;;;;;;;5095378;28;20111;-79
2023/10/22 07:15:13;;;;;;;2.85;1.23;;;;;;;;;;5085022;28;20042;-79
2023/10/22 07:17:39;;;;;;;4.38;1.25;;;;;;;;;;5096340;28;20551;-79
2023/10/22 07:20:06;;;;;;;2.17;1.02;;;;;;;;;;5080566;28;20044;-79
2023/10/22 07:22:31;;;;;;;3.67;1.35;;;;;;;;;;5102828;28;20040;-79
2023/10/22 07:24:56;;;;;;;4.10;1.35;;;;;;;;;;5097161;28;20035;-79
2023/10/22 07:27:21;;;;;;;2.95;1.33;;;;;;;;;;5095077;28;20036;-78
2023/10/22 07:29:47;;;;;;;2.67;1.27;;;;;;;;;;5098114;28;20032;-78
2023/10/22 07:32:12;;;;;;;2.42;1.33;;;;;;;;;;5097801;28;20129;-79
2023/10/22 07:34:37;;;;;;;2.85;1.08;;;;;;;;;;5101216;28;20034;-79
2023/10/22 07:37:02;;;;;;;2.60;1.15;;;;;;;;;;5101042;28;20020;-79
2023/10/22 07:39:27;;;;;;;4.35;1.30;;;;;;;;;;5093594;28;20028;-79
2023/10/22 07:41:53;;;;;;;2.85;1.25;;;;;;;;;;5094132;28;20027;-79
2023/10/22 07:44:18;;;;;;;3.70;1.30;;;;;;;;;;5096294;28;20103;-79
2023/10/22 07:46:43;;;;;;;4.18;1.30;;;;;;;;;;5099455;28;20469;-79
2023/10/22 07:49:10;;;;;;;3.75;1.88;;;;;;;;;;5099559;28;20016;-79
2023/10/22 07:51:35;;;;;;;2.80;1.40;;;;;;;;;;5100178;28;20119;-77
2023/10/22 07:54:01;;;;;;;2.83;1.55;;;;;;;;;;5091263;28;20066;-79
2023/10/22 07:56:26;;;;;;;3.40;1.63;;;;;;;;;;5094386;28;20032;-79
2023/10/22 07:58:51;;;;;;;3.22;1.33;;;;;;;;;;5098689;28;20030;-79
2023/10/22 08:01:17;;;;;;;3.83;1.58;;;;;;;;;;5096337;28;20020;-79
2023/10/22 08:03:43;;;;;;;4.13;1.63;;;;;;;;;;5081426;28;20028;-76
2023/10/22 08:06:08;;;;;;;4.03;1.40;;;;;;;;;;5096544;28;20051;-79
2023/10/22 08:08:34;;;;;;;3.28;1.33;;;;;;;;;;5089778;28;20028;-78
2023/10/22 08:11:01;;;;;;;4.35;1.23;;;;;;;;;;5073334;28;20553;-80
2023/10/22 08:13:26;;;;;;;3.22;1.60;;;;;;;;;;5097093;28;20032;-78
2023/10/22 08:15:52;;;;;;;3.78;1.20;;;;;;;;;;5099179;28;20054;-79
2023/10/22 08:18:18;;;;;;;4.25;1.10;;;;;;;;;;5100443;28;20021;-79
2023/10/22 08:20:43;;;;;;;5.65;1.60;;;;;;;;;;5077901;28;20129;-79
2023/10/22 08:23:08;;;;;;;3.97;1.30;;;;;;;;;;5076268;28;20096;-76
2023/10/22 08:25:34;;;;;;;3.85;1.60;;;;;;;;;;5092605;28;20028;-80
2023/10/22 08:27:59;;;;;;;3.08;1.13;;;;;;;;;;5099003;28;20031;-78
2023/10/22 08:30:24;;;;;;;3.78;1.23;;;;;;;;;;5100848;28;20043;-78
2023/10/22 08:32:50;;;;;;;3.50;1.10;;;;;;;;;;5103627;28;20028;-79
2023/10/22 08:35:15;;;;;;;3.20;1.00;;;;;;;;;;5090824;28;20200;-79
2023/10/22 08:37:41;;;;;;;2.88;1.05;;;;;;;;;;5096384;28;20025;-79
2023/10/22 08:40:08;;;;;;;3.33;1.13;;;;;;;;;;5096727;28;20480;-78
2023/10/22 08:42:34;;;;;;;4.78;1.05;;;;;;;;;;5100034;28;20105;-79
2023/10/22 08:44:59;;;;;;;4.28;1.10;;;;;;;;;;5100683;28;20464;-79
2023/10/22 08:47:25;;;;;;;3.78;1.35;;;;;;;;;;5101191;28;20040;-78
2023/10/22 08:49:51;;;;;;;3.10;1.00;;;;;;;;;;5091956;28;20077;-79
2023/10/22 08:52:16;;;;;;;3.03;0.95;;;;;;;;;;5096201;28;20043;-78
2023/10/22 08:54:43;;;;;;;5.40;1.13;;;;;;;;;;5092582;28;20036;-80
2023/10/22 08:57:08;;;;;;;6.18;1.10;;;;;;;;;;5100044;28;20035;-78
2023/10/22 08:59:36;;;;;;;3.42;1.13;;;;;;;;;;5105725;28;20028;-79
2023/10/22 09:02:06;;;;;;;3.40;1.10;;;;;;;;;;5082941;28;20072;-79
2023/10/22 09:04:32;;;;;;;3.20;0.88;;;;;;;;;;5095919;28;20506;-79
2023/10/22 09:06:57;;;;;;;7.38;1.15;;;;;;;;;;5082008;28;20126;-79
2023/10/22 09:09:29;;;;;;;3.33;0.70;;;;;;;;;;5100278;28;20051;-78
2023/10/22 09:11:55;;;;;;;3.40;0.80;;;;;;;;;;5100393;28;20039;-77
2023/10/22 09:14:21;;;;;;;2.75;0.90;;;;;;;;;;5081163;28;20032;-78
2023/10/22 09:16:46;;;;;;;3.65;0.93;;;;;;;;;;5099750;28;20036;-79
2023/10/22 09:19:12;;;;;;;2.38;0.82;;;;;;;;;;5098137;28;20020;-79
2023/10/22 09:21:44;;;;;;;3.28;1.02;;;;;;;;;;5100969;28;20024;-78
2023/10/22 09:24:09;;;;;;;4.20;1.05;;;;;;;;;;5098112;28;20123;-78
2023/10/22 09:26:42;;;;;;;3.88;0.90;;;;;;;;;;5104988;28;20496;-77
2023/10/22 09:29:07;;;;;;;4.43;1.20;;;;;;;;;;5103767;28;20451;-79
2023/10/22 09:31:33;;;;;;;2.63;0.80;;;;;;;;;;5097354;28;20032;-79
2023/10/22 09:33:59;;;;;;;4.30;0.80;;;;;;;;;;5098840;28;20038;-79
2023/10/22 09:36:25;;;;;;;2.63;0.82;;;;;;;;;;5099750;28;20507;-79
2023/10/22 09:38:51;;;;;;;3.38;0.75;;;;;;;;;;5104272;28;20023;-79
2023/10/22 09:41:22;;;;;;;3.88;1.02;;;;;;;;;;5098794;28;20631;-79
2023/10/22 09:43:49;;;;;;;3.93;1.00;;;;;;;;;;5102939;28;20051;-79
2023/10/22 09:46:14;;;;;;;5.85;1.02;;;;;;;;;;5077562;28;20036;-79
2023/10/22 09:48:40;;;;;;;3.47;0.90;;;;;;;;;;5100064;28;20040;-79
2023/10/22 09:51:06;;;;;;;4.13;0.88;;;;;;;;;;5100946;28;20067;-77
2023/10/22 09:53:36;;;;;;;9.15;1.30;;;;;;;;;;5101251;28;20059;-79
2023/10/22 09:56:06;;;;;;;4.05;1.10;;;;;;;;;;5103513;28;20039;-78
2023/10/22 09:58:33;;;;;;;4.13;0.77;;;;;;;;;;5096403;28;20523;-78
2023/10/22 10:00:59;;;;;;;5.53;1.08;;;;;;;;;;5099265;28;20019;-77
2023/10/22 10:03:24;;;;;;;4.28;1.40;;;;;;;;;;5099152;28;20031;-79
2023/10/22 10:05:51;;;;;;;4.20;0.70;;;;;;;;;;5103163;28;20487;-77
2023/10/22 10:08:17;;;;;;;3.03;1.25;;;;;;;;;;5083625;28;20032;-78
2023/10/22 10:10:43;;;;;;;3.33;0.90;;;;;;;;;;5085035;28;20035;-78
2023/10/22 10:13:08;;;;;;;4.07;0.70;;;;;;;;;;5094553;28;20024;-79
2023/10/22 10:15:35;;;;;;;4.50;1.00;;;;;;;;;;5097745;28;20028;-77
2023/10/22 10:18:03;;;;;;;2.05;0.57;;;;;;;;;;5101004;28;20027;-79
2023/10/22 10:20:30;;;;;;;4.22;0.98;;;;;;;;;;5101993;28;20027;-79
2023/10/22 10:23:09;;;;;;;2.85;0.73;;;;;;;;;;5086545;28;20636;-78
2023/10/22 10:25:35;;;;;;;2.58;0.85;;;;;;;;;;5095234;28;20442;-78
2023/10/22 10:28:01;;;;;;;3.63;0.90;;;;;;;;;;5097948;28;20095;-78
2023/10/22 10:30:27;;;;;;;2.97;0.88;;;;;;;;;;5097840;28;20036;-79
2023/10/22 10:32:53;;;;;;;4.00;0.70;;;;;;;;;;5084768;28;20111;-79
2023/10/22 10:35:19;;;;;;;2.90;0.98;;;;;;;;;;5091779;28;20027;-78
2023/10/22 10:38:10;;;;;;;3.80;0.90;;;;;;;;;;5100135;28;20024;-78
2023/10/22 10:40:42;;;;;;;4.03;1.05;;;;;;;;;;5105189;28;20116;-79
2023/10/22 10:43:08;;;;;;;3.55;0.85;;;;;;;;;;5103273;28;20024;-76
2023/10/22 10:45:33;;;;;;;3.95;0.98;;;;;;;;;;5104649;28;20427;-79
2023/10/22 10:47:58;;;;;;;4.10;1.30;;;;;;;;;;5116969;22;20016;-86
2023/10/22 10:50:24;;;;;;;3.45;0.98;;;;;;;;;;5086553;28;20039;-85
2023/10/22 10:52:49;;;;;;;2.55;0.85;;;;;;;;;;5086085;28;20024;-85
2023/10/22 10:55:14;;;;;;;6.20;0.90;;;;;;;;;;5083583;28;20031;-85
2023/10/22 10:57:41;;;;;;;4.20;1.23;;;;;;;;;;5104164;28;20273;-84
2023/10/22 11:00:09;;;;;;;4.75;1.02;;;;;;;;;;5102002;28;20529;-86
2023/10/22 11:02:45;;;;;;;4.35;1.30;;;;;;;;;;5085608;28;20038;-85
2023/10/22 11:05:10;;;;;;;4.30;0.90;;;;;;;;;;5105680;28;20535;-85
2023/10/22 11:07:39;;;;;;;4.35;1.25;;;;;;;;;;5100688;28;20035;-85
2023/10/22 11:10:14;;;;;;;4.00;0.90;;;;;;;;;;5079567;28;20028;-85
2023/10/22 11:12:40;;;;;;;3.85;0.88;;;;;;;;;;5100441;28;20027;-85
2023/10/22 11:15:08;;;;;;;4.15;0.88;;;;;;;;;;5101973;28;20498;-82
2023/10/22 11:17:33;;;;;;;5.25;0.80;;;;;;;;;;5101234;28;20028;-79
2023/10/22 11:19:58;;;;;;;3.97;0.88;;;;;;;;;;5100256;28;20031;-78
2023/10/22 11:22:24;;;;;;;5.05;1.27;;;;;;;;;;5081105;28;20025;-80
2023/10/22 11:24:49;;;;;;;3.55;0.73;;;;;;;;;;5098857;28;20028;-78
2023/10/22 11:27:15;;;;;;;5.03;1.00;;;;;;;;;;5102510;28;20032;-80
2023/10/22 11:29:41;;;;;;;2.83;0.90;;;;;;;;;;5083892;28;20038;-80
2023/10/22 11:32:10;;;;;;;5.65;1.08;;;;;;;;;;5102318;28;20155;-80
2023/10/22 11:34:35;;;;;;;4.47;0.70;;;;;;;;;;5099388;28;20058;-80
2023/10/22 11:37:01;;;;;;;5.28;0.95;;;;;;;;;;5101235;28;20120;-80
2023/10/22 11:39:33;;;;;;;3.55;1.08;;;;;;;;;;5103603;28;20107;-79
2023/10/22 11:41:59;;;;;;;3.28;0.70;;;;;;;;;;5069222;28;20032;-79
2023/10/22 11:44:33;;;;;;;4.18;0.85;;;;;;;;;;5102006;28;20023;-79
2023/10/22 11:46:59;;;;;;;3.83;1.05;;;;;;;;;;5103300;28;20039;-80
2023/10/22 11:49:25;;;;;;;3.90;0.73;;;;;;;;;;5095519;28;20040;-79
2023/10/22 11:51:50;;;;;;;2.60;0.80;;;;;;;;;;5101984;28;20035;-79
2023/10/22 11:54:15;;;;;;;4.85;1.02;;;;;;;;;;5080746;28;20036;-80
2023/10/22 11:56:40;;;;;;;6.15;0.70;;;;;;;;;;5102927;28;20031;-82
2023/10/22 11:59:06;;;;;;;4.53;1.25;;;;;;;;;;5084065;28;20029;-80
2023/10/22 12:01:32;;;;;;;4.07;0.80;;;;;;;;;;5079436;28;20024;-80
2023/10/22 12:03:57;;;;;;;4.03;1.02;;;;;;;;;;5083197;28;20098;-80
2023/10/22 12:06:23;;;;;;;2.78;0.77;;;;;;;;;;5099326;28;20116;-81
2023/10/22 12:08:48;;;;;;;6.80;1.13;;;;;;;;;;5083328;28;20060;-81
2023/10/22 12:11:13;;;;;;;2.78;0.88;;;;;;;;;;5098999;28;20023;-79
2023/10/22 12:13:38;;;;;;;6.50;1.73;;;;;;;;;;5098804;28;20502;-78
2023/10/22 12:16:03;;;;;;;4.53;1.05;;;;;;;;;;5103491;28;20285;-78
2023/10/22 12:18:29;;;;;;;3.10;0.80;;;;;;;;;;5103214;28;20032;-78
2023/10/22 12:20:57;;;;;;;3.72;1.33;;;;;;;;;;5103519;28;20051;-78
2023/10/22 12:23:22;;;;;;;3.05;1.08;;;;;;;;;;5084103;28;20475;-78
2023/10/22 12:25:47;;;;;;;2.95;0.70;;;;;;;;;;5086705;28;20039;-78
2023/10/22 12:28:13;;;;;;;3.58;0.82;;;;;;;;;;5103032;28;20476;-78
2023/10/22 12:30:41;;;;;;;3.85;0.82;;;;;;;;;;5100348;28;20035;-78
2023/10/22 12:33:08;;;;;;;4.65;0.80;;;;;;;;;;5104307;28;20040;-77
2023/10/22 12:35:37;;;;;;;3.75;0.70;;;;;;;;;;5101127;28;20036;-78
2023/10/22 12:38:02;;;;;;;2.58;0.60;;;;;;;;;;5105055;28;20036;-78
2023/10/22 12:40:27;;;;;;;4.40;0.83;;;;;;;;;;5107345;28;20034;-78
2023/10/22 12:42:52;;;;;;;2.85;0.73;;;;;;;;;;5103118;28;20266;-78
2023/10/22 12:45:17;;;;;;;2.50;0.70;;;;;;;;;;5077994;28;20480;-78
2023/10/22 12:47:43;;;;;;;2.33;0.60;;;;;;;;;;5105141;28;20046;-78
2023/10/22 12:50:08;;;;;;;3.10;0.75;;;;;;;;;;5105206;28;20036;-78
2023/10/22 12:52:34;;;;;;;4.53;0.93;;;;;;;;;;5105882;28;20024;-78
2023/10/22 12:54:59;;;;;;;3.20;0.88;;;;;;;;;;5086578;28;20028;-78
2023/10/22 12:57:24;;;;;;;2.58;0.80;;;;;;;;;;5104429;28;20043;-79
2023/10/22 12:59:49;;;;;;;4.30;0.70;;;;;;;;;;5106966;28;20043;-78
2023/10/22 13:02:15;;;;;;;5.70;1.20;;;;;;;;;;5106541;28;20658;-78
2023/10/22 13:04:40;;;;;;;4.15;0.95;;;;;;;;;;5096402;28;20472;-80
2023/10/22 13:07:06;;;;;;;2.97;0.82;;;;;;;;;;5087172;28;20097;-79
2023/10/22 13:09:31;;;;;;;3.30;1.23;;;;;;;;;;5105514;28;20032;-79
2023/10/22 13:11:56;;;;;;;3.75;1.00;;;;;;;;;;5103146;28;20020;-80
2023/10/22 13:14:21;;;;;;;2.97;0.80;;;;;;;;;;5103651;28;20476;-80
2023/10/22 13:16:48;;;;;;;3.50;1.60;;;;;;;;;;5103864;28;20544;-80
2023/10/22 13:19:13;;;;;;;2.95;0.68;;;;;;;;;;5102284;28;20043;-80
2023/10/22 13:21:38;;;;;;;3.72;0.88;;;;;;;;;;5102966;28;20039;-80
2023/10/22 13:24:04;;;;;;;4.30;0.80;;;;;;;;;;5103077;28;20036;-79
2023/10/22 13:26:31;;;;;;;4.93;0.80;;;;;;;;;;5085821;28;20393;-79
2023/10/22 13:28:56;;;;;;;2.67;0.52;;;;;;;;;;5091193;28;20071;-82
2023/10/22 13:31:21;;;;;;;4.72;1.45;;;;;;;;;;5102390;28;20038;-81
2023/10/22 13:33:46;;;;;;;4.13;0.90;;;;;;;;;;5086383;28;20034;-81
2023/10/22 13:36:12;;;;;;;5.55;1.38;;;;;;;;;;5103621;28;20024;-80
2023/10/22 13:38:37;;;;;;;4.68;1.50;;;;;;;;;;5104365;28;20206;-81
2023/10/22 13:41:03;;;;;;;3.08;0.80;;;;;;;;;;5095842;28;21242;-81
2023/10/22 13:43:28;;;;;;;4.10;0.80;;;;;;;;;;5082916;28;20046;-81
2023/10/22 13:45:53;;;;;;;4.78;1.00;;;;;;;;;;5088746;28;20031;-81
2023/10/22 13:48:18;;;;;;;3.85;0.90;;;;;;;;;;5096088;28;20043;-81
2023/10/22 13:50:44;;;;;;;4.22;1.05;;;;;;;;;;5101012;28;20027;-81
2023/10/22 13:53:09;;;;;;;4.72;0.90;;;;;;;;;;5100233;28;20040;-81
2023/10/22 13:55:34;;;;;;;4.47;1.20;;;;;;;;;;5094557;28;20028;-81
2023/10/22 13:58:00;;;;;;;4.05;0.77;;;;;;;;;;5079444;28;20150;-81
2023/10/22 14:00:25;;;;;;;4.47;1.10;;;;;;;;;;5097756;28;20476;-81
2023/10/22 14:02:50;;;;;;;4.00;1.08;;;;;;;;;;5083524;28;20031;-81
2023/10/22 14:05:15;;;;;;;4.50;0.90;;;;;;;;;;5095028;28;20027;-81
2023/10/22 14:07:41;;;;;;;3.03;0.90;;;;;;;;;;5098100;28;20556;-80
2023/10/22 14:10:07;;;;;;;6.30;1.15;;;;;;;;;;5092931;28;20035;-80
2023/10/22 14:12:32;;;;;;;4.90;1.13;;;;;;;;;;5089843;28;20059;-80
2023/10/22 14:14:58;;;;;;;4.55;1.25;;;;;;;;;;5099451;28;20085;-79
2023/10/22 14:17:23;;;;;;;4.43;1.40;;;;;;;;;;5094219;28;20032;-81
2023/10/22 14:19:51;;;;;;;5.15;0.90;;;;;;;;;;5095473;28;20476;-81
2023/10/22 14:22:16;;;;;;;4.10;1.00;;;;;;;;;;5088921;28;20105;-82
2023/10/22 14:24:41;;;;;;;3.03;1.08;;;;;;;;;;5089063;28;20051;-82
2023/10/22 14:27:07;;;;;;;4.80;1.00;;;;;;;;;;5090781;28;20051;-82
2023/10/22 14:29:32;;;;;;;4.63;0.93;;;;;;;;;;5096366;28;20147;-82
2023/10/22 14:31:58;;;;;;;7.20;1.23;;;;;;;;;;5080949;28;20035;-82
2023/10/22 14:34:23;;;;;;;4.22;1.08;;;;;;;;;;5095275;28;20369;-82